createdAt,value
2023-03-17T00:01:56.080Z,97500.81
2023-03-17T00:04:24.489Z,97515.09
2023-03-17T00:06:52.949Z,97510.72
2023-03-17T00:09:21.148Z,97509.81
2023-03-17T00:11:49.145Z,97496.47
2023-03-17T00:14:16.887Z,97505.44
2023-03-17T00:16:50.147Z,97498.50
2023-03-17T00:19:21.749Z,97495.94
2023-03-17T00:21:49.322Z,97479.91
2023-03-17T00:24:16.163Z,97487.94
2023-03-17T00:26:43.677Z,97480.28
2023-03-17T00:29:10.946Z,97483.09
2023-03-17T00:31:39.288Z,97489.84
2023-03-17T00:34:08.077Z,97473.88
2023-03-17T00:36:35.922Z,97475.78
2023-03-17T00:39:06.709Z,97473.47
2023-03-17T00:41:33.671Z,97458.56
2023-03-17T00:44:00.320Z,97472.75
2023-03-17T00:46:36.106Z,97455.38
2023-03-17T00:49:10.730Z,97454.34
2023-03-17T00:51:40.182Z,97460.13
2023-03-17T00:54:07.168Z,97454.13
2023-03-17T00:56:34.040Z,97458.06
2023-03-17T00:59:00.864Z,97447.72
2023-03-17T01:01:28.232Z,97432.72
2023-03-17T01:03:54.904Z,97445.56
2023-03-17T01:06:21.638Z,97445.56
2023-03-17T01:08:48.809Z,97436.69
2023-03-17T01:11:18.974Z,97422.09
2023-03-17T01:13:47.744Z,97412.19
2023-03-17T01:16:15.689Z,97425.16
2023-03-17T01:18:42.571Z,97398.63
2023-03-17T01:21:09.627Z,97424.38
2023-03-17T01:23:36.730Z,97423.03
2023-03-17T01:26:04.316Z,97413.94
2023-03-17T01:28:31.100Z,97404.59
2023-03-17T01:30:57.973Z,97408.53
2023-03-17T01:33:25.687Z,97412.06
2023-03-17T01:35:52.687Z,97402.75
2023-03-17T01:38:19.577Z,97401.22
2023-03-17T01:40:49.818Z,97394.38
2023-03-17T01:43:27.733Z,97406.16
2023-03-17T01:46:22.521Z,97396.75
2023-03-17T01:49:05.809Z,97391.06
2023-03-17T01:52:01.112Z,97393.88
2023-03-17T01:54:45.224Z,97388.00
2023-03-17T01:57:11.939Z,97398.84
2023-03-17T01:59:44.417Z,97396.38
2023-03-17T02:02:16.163Z,97401.66
2023-03-17T02:04:42.877Z,97389.47
2023-03-17T02:07:10.311Z,97389.88
2023-03-17T02:09:41.428Z,97369.19
2023-03-17T02:12:09.316Z,97393.28
2023-03-17T02:14:36.607Z,97381.38
2023-03-17T02:17:03.344Z,97395.22
2023-03-17T02:19:30.979Z,97374.97
2023-03-17T02:21:58.706Z,97384.69
2023-03-17T02:24:34.381Z,97380.13
2023-03-17T02:27:18.936Z,97375.75
2023-03-17T02:29:46.559Z,97381.53
2023-03-17T02:32:18.666Z,97376.47
2023-03-17T02:34:49.598Z,97375.34
2023-03-17T02:37:18.291Z,97355.78
2023-03-17T02:39:45.529Z,97352.38
2023-03-17T02:42:13.355Z,97367.03
2023-03-17T02:44:40.585Z,97367.25
2023-03-17T02:47:08.569Z,97378.84
2023-03-17T02:49:37.397Z,97368.44
2023-03-17T02:52:04.754Z,97367.50
2023-03-17T02:54:31.811Z,97365.84
2023-03-17T02:56:59.363Z,97363.50
2023-03-17T02:59:26.440Z,97328.66
2023-03-17T03:01:53.446Z,97350.13
2023-03-17T03:04:20.361Z,97348.22
2023-03-17T03:06:47.784Z,97358.44
2023-03-17T03:09:15.223Z,97340.84
2023-03-17T03:11:42.719Z,97337.25
2023-03-17T03:14:10.140Z,97353.16
2023-03-17T03:16:37.809Z,97350.91
2023-03-17T03:19:04.842Z,97333.34
2023-03-17T03:21:31.791Z,97341.75
2023-03-17T03:23:58.599Z,97366.13
2023-03-17T03:26:25.800Z,97362.47
2023-03-17T03:28:52.536Z,97367.25
2023-03-17T03:31:19.759Z,97363.09
2023-03-17T03:33:46.631Z,97365.91
2023-03-17T03:36:13.517Z,97348.25
2023-03-17T03:38:41.700Z,97334.31
2023-03-17T03:41:09.092Z,97337.28
2023-03-17T03:43:36.922Z,97338.63
2023-03-17T03:46:04.886Z,97346.91
2023-03-17T03:48:31.778Z,97345.97
2023-03-17T03:51:00.506Z,97331.47
2023-03-17T03:53:28.440Z,97331.81
2023-03-17T03:55:56.063Z,97332.53
2023-03-17T03:58:23.059Z,97344.72
2023-03-17T04:00:50.041Z,97336.13
2023-03-17T04:03:17.115Z,97323.22
2023-03-17T04:05:44.210Z,97319.78
2023-03-17T04:08:11.451Z,97325.47
2023-03-17T04:10:38.212Z,97321.88
2023-03-17T04:13:05.068Z,97322.88
2023-03-17T04:15:31.779Z,97328.88
2023-03-17T04:17:58.548Z,97301.63
2023-03-17T04:20:25.555Z,97325.06
2023-03-17T04:22:52.485Z,97318.78
2023-03-17T04:25:19.414Z,97329.63
2023-03-17T04:27:46.349Z,97334.16
2023-03-17T04:30:14.569Z,97327.34
2023-03-17T04:32:41.816Z,97329.44
2023-03-17T04:35:14.192Z,97328.16
2023-03-17T04:37:41.668Z,97322.88
2023-03-17T04:40:10.936Z,97326.63
2023-03-17T04:42:38.394Z,97334.78
2023-03-17T04:45:07.103Z,97346.59
2023-03-17T04:47:33.829Z,97331.69
2023-03-17T04:50:00.619Z,97327.88
2023-03-17T04:52:28.451Z,97343.19
2023-03-17T04:54:55.203Z,97321.16
2023-03-17T04:57:22.457Z,97328.72
2023-03-17T04:59:49.187Z,97321.91
2023-03-17T05:02:15.918Z,97336.25
2023-03-17T05:04:43.436Z,97329.84
2023-03-17T05:07:10.282Z,97335.31
2023-03-17T05:09:37.164Z,97326.75
2023-03-17T05:12:04.276Z,97335.22
2023-03-17T05:14:31.288Z,97333.03
2023-03-17T05:16:57.968Z,97326.34
2023-03-17T05:19:24.692Z,97321.78
2023-03-17T05:21:51.613Z,97319.31
2023-03-17T05:24:18.345Z,97311.06
2023-03-17T05:26:45.566Z,97322.09
2023-03-17T05:29:12.286Z,97323.88
2023-03-17T05:31:39.108Z,97322.69
2023-03-17T05:34:05.955Z,97326.13
2023-03-17T05:36:33.602Z,97331.50
2023-03-17T05:39:00.641Z,97341.22
2023-03-17T05:41:28.203Z,97337.06
2023-03-17T05:43:54.992Z,97344.94
2023-03-17T05:46:22.536Z,97341.19
2023-03-17T05:48:49.298Z,97351.94
2023-03-17T05:51:16.073Z,97340.97
2023-03-17T05:53:43.517Z,97339.34
2023-03-17T05:56:10.199Z,97339.94
2023-03-17T05:58:36.944Z,97333.31
2023-03-17T06:01:03.784Z,97325.34
2023-03-17T06:03:30.660Z,97329.75
2023-03-17T06:05:57.479Z,97314.03
2023-03-17T06:08:24.609Z,97328.19
2023-03-17T06:10:51.548Z,97336.16
2023-03-17T06:13:18.265Z,97331.16
2023-03-17T06:15:46.754Z,97337.19
2023-03-17T06:18:13.551Z,97335.09
2023-03-17T06:20:40.297Z,97326.53
2023-03-17T06:23:07.014Z,97327.53
2023-03-17T06:25:35.141Z,97336.78
2023-03-17T06:28:04.009Z,97321.97
2023-03-17T06:30:35.320Z,97338.34
2023-03-17T06:33:03.261Z,97339.22
2023-03-17T06:35:33.526Z,97336.19
2023-03-17T06:38:01.097Z,97330.91
2023-03-17T06:40:29.040Z,97317.41
2023-03-17T06:42:55.754Z,97313.06
2023-03-17T06:45:22.421Z,97312.81
2023-03-17T06:47:49.396Z,97313.31
2023-03-17T06:50:16.293Z,97316.88
2023-03-17T06:52:44.051Z,97313.44
2023-03-17T06:55:12.333Z,97327.72
2023-03-17T06:57:39.297Z,97312.84
2023-03-17T07:00:06.980Z,97316.59
2023-03-17T07:02:34.774Z,97314.59
2023-03-17T07:05:01.878Z,97305.47
2023-03-17T07:07:28.685Z,97303.56
2023-03-17T07:09:55.533Z,97306.22
2023-03-17T07:12:22.312Z,97299.41
2023-03-17T07:14:49.094Z,97314.31
2023-03-17T07:17:16.018Z,97290.22
2023-03-17T07:19:42.913Z,97311.16
2023-03-17T07:22:11.943Z,97312.75
2023-03-17T07:24:38.992Z,97314.97
2023-03-17T07:27:06.282Z,97312.31
2023-03-17T07:29:34.108Z,97297.22
2023-03-17T07:32:02.409Z,97296.59
2023-03-17T07:34:29.157Z,97296.72
2023-03-17T07:36:56.112Z,97301.41
2023-03-17T07:39:22.881Z,97323.09
2023-03-17T07:41:55.380Z,97322.50
2023-03-17T07:44:23.622Z,97319.53
2023-03-17T07:46:51.601Z,97323.59
2023-03-17T07:49:25.155Z,97327.38
2023-03-17T07:52:00.967Z,97314.03
2023-03-17T07:54:29.251Z,97314.06
2023-03-17T07:56:57.094Z,97309.06
2023-03-17T07:59:24.028Z,97318.81
2023-03-17T08:01:50.833Z,97329.28
2023-03-17T08:04:17.693Z,97322.03
2023-03-17T08:06:46.531Z,97297.22
2023-03-17T08:09:13.472Z,97309.56
2023-03-17T08:11:40.431Z,97289.41
2023-03-17T08:14:07.225Z,97299.00
2023-03-17T08:16:34.029Z,97301.59
2023-03-17T08:19:01.052Z,97287.97
2023-03-17T08:21:28.558Z,97263.09
2023-03-17T08:23:55.386Z,97283.56
2023-03-17T08:26:23.265Z,97275.44
2023-03-17T08:28:50.406Z,97281.00
2023-03-17T08:31:20.287Z,97272.16
2023-03-17T08:33:53.434Z,97270.84
2023-03-17T08:36:21.504Z,97275.72
2023-03-17T08:38:48.535Z,97279.47
2023-03-17T08:41:22.897Z,97274.66
2023-03-17T08:43:50.856Z,97272.88
2023-03-17T08:46:29.994Z,97265.94
2023-03-17T08:48:58.926Z,97269.16
2023-03-17T08:51:28.543Z,97278.09
2023-03-17T08:53:56.069Z,97256.72
2023-03-17T08:56:23.023Z,97264.81
2023-03-17T08:58:51.002Z,97268.81
2023-03-17T09:01:20.956Z,97255.78
2023-03-17T09:03:48.529Z,97254.38
2023-03-17T09:06:15.756Z,97254.91
2023-03-17T09:08:52.954Z,97245.63
2023-03-17T09:11:20.674Z,97251.28
2023-03-17T09:13:47.858Z,97261.44
2023-03-17T09:16:16.376Z,97248.22
2023-03-17T09:18:43.804Z,97236.75
2023-03-17T09:21:12.105Z,97240.88
2023-03-17T09:23:39.210Z,97239.25
2023-03-17T09:26:06.207Z,97229.91
2023-03-17T09:28:36.132Z,97234.69
2023-03-17T09:31:06.344Z,97242.19
2023-03-17T09:33:33.098Z,97218.56
2023-03-17T09:35:59.790Z,97231.97
2023-03-17T09:38:27.776Z,97236.56
2023-03-17T09:41:20.677Z,97215.38
2023-03-17T09:44:34.747Z,97236.78
2023-03-17T09:47:04.371Z,97226.53
2023-03-17T09:49:44.845Z,97220.56
2023-03-17T09:52:18.750Z,97219.41
2023-03-17T09:54:46.776Z,97214.78
2023-03-17T09:57:18.209Z,97211.69
2023-03-17T09:59:48.177Z,97208.78
2023-03-17T10:02:24.904Z,97200.84
2023-03-17T10:04:51.902Z,97185.28
2023-03-17T10:07:26.088Z,97200.47
2023-03-17T10:10:05.805Z,97197.97
2023-03-17T10:12:35.444Z,97206.25
2023-03-17T10:15:15.644Z,97204.34
2023-03-17T10:17:42.837Z,97181.94
2023-03-17T10:20:17.361Z,97176.69
2023-03-17T10:22:52.934Z,97147.94
2023-03-17T10:25:22.861Z,97176.75
2023-03-17T10:28:03.637Z,97179.28
2023-03-17T10:30:33.879Z,97178.47
2023-03-17T10:33:03.474Z,97179.03
2023-03-17T10:35:36.166Z,97171.66
2023-03-17T10:38:19.860Z,97176.94
2023-03-17T10:41:13.557Z,97169.53
2023-03-17T10:43:53.695Z,97156.44
2023-03-17T10:46:26.100Z,97160.66
2023-03-17T10:49:18.124Z,97158.31
2023-03-17T10:51:46.719Z,97163.13
2023-03-17T10:54:18.917Z,97155.50
2023-03-17T10:56:57.782Z,97144.41
2023-03-17T10:59:33.207Z,97144.69
2023-03-17T11:02:02.268Z,97129.09
2023-03-17T11:04:32.041Z,97141.16
2023-03-17T11:07:00.938Z,97152.56
2023-03-17T11:09:34.143Z,97150.59
2023-03-17T11:12:07.072Z,97137.56
2023-03-17T11:14:34.064Z,97143.38
2023-03-17T11:17:16.688Z,97138.72
2023-03-17T11:20:07.270Z,97139.25
2023-03-17T11:22:40.841Z,97138.66
2023-03-17T11:25:19.492Z,97124.84
2023-03-17T11:27:56.818Z,97112.22
2023-03-17T11:30:36.949Z,97123.44
2023-03-17T11:33:28.398Z,97126.50
2023-03-17T11:36:09.743Z,97121.06
2023-03-17T11:38:44.666Z,97115.59
2023-03-17T11:41:26.218Z,97109.72
2023-03-17T11:44:05.781Z,97100.56
2023-03-17T11:47:17.221Z,97091.25
2023-03-17T11:49:47.217Z,97092.31
2023-03-17T11:52:17.389Z,97096.00
2023-03-17T11:55:31.258Z,97079.56
2023-03-17T11:58:03.367Z,97087.72
2023-03-17T12:00:36.702Z,97081.38
2023-03-17T12:03:15.848Z,97076.13
2023-03-17T12:05:46.917Z,97065.53
2023-03-17T12:08:42.374Z,97076.94
2023-03-17T12:11:12.105Z,97068.41
2023-03-17T12:13:46.961Z,97081.22
2023-03-17T12:16:22.745Z,97070.44
2023-03-17T12:19:12.820Z,97065.75
2023-03-17T12:21:50.431Z,97060.03
2023-03-17T12:24:40.046Z,97062.06
2023-03-17T12:27:17.907Z,97068.34
2023-03-17T12:29:49.955Z,97054.66
2023-03-17T12:32:24.385Z,97054.03
2023-03-17T12:34:57.247Z,97047.88
2023-03-17T12:37:27.758Z,97050.72
2023-03-17T12:40:09.898Z,97055.19
2023-03-17T12:43:05.571Z,97040.88
2023-03-17T12:45:46.339Z,97046.34
2023-03-17T12:48:27.345Z,97044.63
2023-03-17T12:51:28.760Z,97044.59
2023-03-17T12:53:56.110Z,97038.16
2023-03-17T12:56:26.173Z,97024.34
2023-03-17T12:58:58.701Z,97019.75
2023-03-17T13:01:40.392Z,96999.50
2023-03-17T13:04:13.016Z,97012.38
2023-03-17T13:06:45.360Z,97014.88
2023-03-17T13:09:37.393Z,97012.44
2023-03-17T13:12:07.140Z,97000.28
2023-03-17T13:14:45.010Z,97004.88
2023-03-17T13:17:11.735Z,97012.59
2023-03-17T13:19:54.908Z,97001.59
2023-03-17T13:22:21.603Z,97011.03
2023-03-17T13:24:51.452Z,96981.50
2023-03-17T13:27:24.383Z,96995.78
2023-03-17T13:29:51.436Z,96992.84
2023-03-17T13:32:27.685Z,96995.28
2023-03-17T13:35:16.708Z,96988.50
2023-03-17T13:38:14.527Z,96990.19
2023-03-17T13:41:08.396Z,96986.59
2023-03-17T13:43:49.164Z,96994.34
2023-03-17T13:46:21.340Z,96988.44
2023-03-17T13:48:49.440Z,96987.81
2023-03-17T13:51:52.704Z,96996.63
2023-03-17T13:54:28.797Z,96992.34
2023-03-17T13:56:59.405Z,96986.44
2023-03-17T13:59:35.024Z,96968.50
2023-03-17T14:02:14.064Z,96975.53
2023-03-17T14:04:52.799Z,96979.50
2023-03-17T14:07:23.914Z,96978.78
2023-03-17T14:09:59.486Z,96963.78
2023-03-17T14:12:51.300Z,96962.38
2023-03-17T14:15:27.235Z,96959.72
2023-03-17T14:17:59.376Z,96948.94
2023-03-17T14:20:27.765Z,96949.78
2023-03-17T14:22:57.452Z,96941.13
2023-03-17T14:25:26.533Z,96943.34
2023-03-17T14:27:57.064Z,96934.19
2023-03-17T14:30:26.205Z,96939.81
2023-03-17T14:33:04.572Z,96927.97
2023-03-17T14:35:33.791Z,96918.03
2023-03-17T14:38:02.088Z,96917.19
2023-03-17T14:40:32.486Z,96927.53
2023-03-17T14:42:59.252Z,96911.88
2023-03-17T14:45:43.134Z,96906.78
2023-03-17T14:48:14.946Z,96909.22
2023-03-17T14:50:51.578Z,96938.41
